Nearby METAR Reports

 

EGOS - RAF Shawbury, Shropshire, UK
Distance from station: NE 9mi, 14km
Updated: 15/11/2018 22:50
Mist, Mostly cloudy
Mist, Mostly cloudy
 Wind from SE
Wind: SE 5 mph , 7 km/h
Temperature: 12°C
Dew Point: 12°C
Humidity: 100%
Barometer: 1020 hPa
Summary: Mist
Clouds: Mostly cloudy
Visibility: 4 miles , 6 km
Cloud details: Mostly cloudy 396 m
Mostly cloudy 1006 m
2018/11/15 22:50 EGOS 152250Z AUTO 14004KT 6000 BR BKN013/// BKN033/// 12/12 Q1020
KNUQ - Moffett Nas/Mtn, California, USA
Distance from station: N 9mi, 14km
Updated: 15/11/2018 22:56
Smoke, Overcast
Smoke, Overcast
 Wind from N
Wind: N 5 mph , 7 km/h
Temperature: 17°C
Dew Point: 2°C
Humidity: 37%
Barometer: 1018.6 hPa
Summary: Smoke
Clouds: Overcast
Visibility: 1 1/2 miles , 2.4 km
Cloud details: Overcast 366 m
2018/11/15 22:56 KNUQ 152256Z 36004KT 1 1/2SM FU OVC012 17/02 A3008 RMK AO2 SLP188 T01720017
 
KPAO - Palo Alto, California, USA
Distance from station: NNW 14mi, 23km
Updated: 15/11/2018 22:47
Haze, Smoke, Clear
Haze, Smoke, Clear
 Wind from N
Wind: N 9 mph , 15 km/h
Temperature: 16°C
Dew Point: 9°C
Humidity: 63%
Barometer: 1019 hPa
Summary: Haze, Smoke
Clouds: Clear
Visibility: 1 1/2 miles , 2.4 km
2018/11/15 22:47 KPAO 152247Z 35008KT 1 1/2SM HZ FU SKC 16/09 A3009
KRHV - San Jose/Reid, California, USA
Distance from station: ENE 12mi, 19km
Updated: 15/11/2018 22:47
Smoke, Mostly cloudy
Smoke, Mostly cloudy
 Wind from calm
Wind: Calm
Temperature: 20°C
Dew Point: 1°C
Humidity: 28%
Barometer: 1017.9 hPa
Summary: Smoke
Clouds: Mostly cloudy
Visibility: 2 miles , 3 km
Cloud details: Mostly cloudy 610 m
2018/11/15 22:47 KRHV 152247Z 00000KT 2SM FU BKN020 20/01 A3006
 
KOAK - Oakland, California, USA
Distance from station: NNW 31mi, 50km
Updated: 15/11/2018 22:53
Haze, Overcast
Haze, Overcast
 Wind from WNW
Wind: WNW 8 mph , 13 km/h
Temperature: 17°C
Dew Point: 6°C
Humidity: 49%
Barometer: 1018.6 hPa
Summary: Haze
Clouds: Overcast
Visibility: 1 mile , 2 km
Cloud details: Overcast 427 m
2018/11/15 22:53 KOAK 152253Z 30007KT 1SM HZ OVC014 17/06 A3008 RMK AO2 TWR VIS 2 1/2 SLP187 FU OVC014 T01670056
KSQL - San Carlos Airpo, California, USA
Distance from station: NW 21mi, 34km
Updated: 15/11/2018 22:52
Smoke, Haze, Clear
Smoke, Haze, Clear
 Wind from varies
Wind: varies 3 mph , 6 km/h
Temperature: 16°C
Dew Point: 7°C
Humidity: 55%
Barometer: 1018.6 hPa
Summary: Smoke, Haze
Clouds: Clear
Visibility: 1 3/4 miles , 2.8 km
2018/11/15 22:52 KSQL 152252Z VRB03KT 1 3/4SM FU HZ SKC 16/07 A3008
 
KSFO - San Francisco, California, USA
Distance from station: NW 30mi, 49km
Updated: 15/11/2018 22:56
Smoke, Mostly cloudy
Smoke, Mostly cloudy
 Wind from calm
Wind: Calm
Temperature: 17°C
Dew Point: 3°C
Humidity: 39%
Barometer: 1018.3 hPa
Summary: Smoke
Clouds: Mostly cloudy
Visibility: 1 1/2 miles , 2.4 km
Cloud details: Partly cloudy 152 m
Mostly cloudy 457 m
2018/11/15 22:56 KSFO 152256Z 00000KT 1 1/2SM FU SCT005 BKN015 17/03 A3007 RMK AO2 SLP183 T01670028
KE16 - San Martin, California, USA
Distance from station: ESE 27mi, 43km
Updated: 15/11/2018 22:15
Haze, Clear
Haze, Clear
 Wind from NNW
Wind: NNW 10 mph , 17 km/h
Temperature: 20°C
Dew Point: -5°C
Humidity: 18%
Barometer: 1018.6 hPa
Summary: Haze
Clouds: Clear
Visibility: 2 1/2 miles , 4 km
2018/11/15 22:15 KE16 152215Z AUTO 33009KT 2 1/2SM HZ CLR 20/M05 A3008 RMK AO2
 
KWVI - Watsonville, California, USA
Distance from station: SSE 27mi, 44km
Updated: 15/11/2018 22:53
Haze, Clear
Haze, Clear
 Wind from S
Wind: S 3 mph , 6 km/h
Temperature: 23°C
Dew Point: -1°C
Humidity: 20%
Barometer: 1017.6 hPa
Summary: Haze
Clouds: Clear
Visibility: 6 miles , 10 km
2018/11/15 22:53 KWVI 152253Z AUTO 18003KT 6SM HZ CLR 23/M01 A3005 RMK AO2 SLP175 T02331006
KHAF - Half Moon Bay, California, USA
Distance from station: WNW 31mi, 50km
Updated: 15/11/2018 23:00
Haze, Clear
Haze, Clear
 Wind from SSE
Wind: SSE 5 mph , 7 km/h
Temperature: 16°C
Dew Point: 7°C
Humidity: 55%
Barometer: 1018.3 hPa
Summary: Haze
Clouds: Clear
Visibility: 3 miles , 5 km
2018/11/15 23:00 KHAF 152300Z AUTO 16004KT 3SM HZ CLR 16/07 A3007 RMK AO2
 
KHWD - Hayward, California, USA
Distance from station: N 28mi, 44km
Updated: 15/11/2018 22:54
Haze, Smoke, Clear
Haze, Smoke, Clear
 Wind from WNW
Wind: WNW 7 mph , 11 km/h
Temperature: 17°C
Dew Point: 4°C
Humidity: 42%
Barometer: 1018.6 hPa
Summary: Haze, Smoke
Clouds: Clear
Visibility: 1 mile , 2 km
2018/11/15 22:54 KHWD 152254Z 30006KT 1SM HZ FU CLR 17/04 A3008 RMK AO2 SLP194 T01670044
KLVK - Livermore, California, USA
Distance from station: NNE 31mi, 51km
Updated: 15/11/2018 22:53
Haze, Smoke, Clear
Haze, Smoke, Clear
 Wind from ENE
Wind: ENE 10 mph , 17 km/h
Temperature: 18°C
Dew Point: -5°C
Humidity: 21%
Barometer: 1018.3 hPa
Summary: Haze, Smoke
Clouds: Clear
Visibility: 1 1/2 miles , 2.4 km
2018/11/15 22:53 KLVK 152253Z 06009KT 1 1/2SM HZ FU CLR 18/M05 A3007 RMK AO2 SLP184 T01831050